Aviation Digital Data Service (ADDS)

Output produced by METARs form (1240 UTC 16 July 2019)
found at http://www.aviationweather.gov/metar/data/
 
TAPA 161200Z 09008KT 9999 SCT018 29/23 Q1018 NOSIG
TAPA 161100Z 09008KT 9999 FEW018 28/22 Q1017 NOSIG
TAPA 161000Z 10007KT 9999 FEW020 27/23 Q1016 NOSIG
TAPA 160900Z 10008KT 9999 FEW020 27/22 Q1016 NOSIG
TAF TAPA 161120Z 1612/1712 08011KT 9999 SCT020 
     PROB40 
     TEMPO 1703/1712 SHRA
       
TRPG 161200Z 11012KT 9999 SCT018 29/24 Q1017
TRPG 161100Z 11013KT 9999 SCT020 27/24 Q1017
TRPG 161000Z 11013KT 9999 SCT017 26/24 Q1017
TAF TRPG 161120Z 1612/1712 08011KT 9999 SCT020 
     PROB40 
     TEMPO 1703/1712 SHRA
       
TKPK 161200Z 07011KT 9999 SCT021 29/24 Q1018
TKPK 161100Z 08010KT 9999 FEW022 28/23 Q1017
TKPK 161000Z 08010KT 9999 FEW022 27/23 Q1017
TKPK 161125Z 1612/1712 08010KT P6SM FEW022 
     FM161400 05015KT P6SM SCT020 
     FM162000 07010KT P6SM FEW020
       
TAF TKPN 161120Z 1612/1712 08011KT 9999 SCT020 
     PROB40 
     TEMPO 1703/1712 SHRA
       
TQPF 161200Z 09013KT 9999 FEW019 28/22 Q1018 LGT HZ
TQPF 161100Z 09010KT 9999 FEW019 28/22 Q1018 LGT HZ
TAF TQPF 161120Z 1612/1712 08011KT 9999 SCT020 
     PROB40 
     TEMPO 1703/1712 SHRA
       
TUPJ 161200Z 13008KT 10SM FEW020 29/23 A3008 RMK Q1018 VIS35KM
TUPJ 161100Z 12008G20KT 10SM FEW019 28/22 A3006 RMK Q1018 VIS35KM
TAF TUPJ 161120Z 1612/1712 08011KT 9999 SCT022